Time,TemperatureF,DewpointF,PressureIn,WindDirection,WindDirectionDegrees,WindSpeedMPH,WindSpeedGustMPH,Humidity,HourlyPrecipIn,Conditions,Clouds,dailyrainin,SoftwareType,DateUTC
2013-02-17 00:01:00,62.0,51.0,-100.00,ENE,58,6.0,16.0,66,0.00,,,0.00,,2013-02-17 10:01:00,
2013-02-17 00:11:00,61.0,51.0,-100.00,West,259,1.0,14.0,69,0.00,,,0.00,,2013-02-17 10:11:00,
2013-02-17 00:42:00,61.0,51.0,-100.00,West,259,1.0,14.0,69,0.00,,,0.00,,2013-02-17 10:42:00,
2013-02-17 00:52:00,61.0,51.0,-100.00,West,259,1.0,14.0,69,0.00,,,0.00,,2013-02-17 10:52:00,
2013-02-17 01:01:00,61.0,51.0,-100.00,West,259,1.0,14.0,69,0.00,,,0.00,,2013-02-17 11:01:00,
2013-02-17 01:11:00,61.0,52.0,-100.00,WNW,297,3.0,9.0,72,0.00,,,0.00,,2013-02-17 11:11:00,
2013-02-17 01:42:00,61.0,52.0,-100.00,WNW,297,3.0,9.0,72,0.00,,,0.00,,2013-02-17 11:42:00,
2013-02-17 01:52:00,61.0,52.0,-100.00,WNW,297,3.0,9.0,72,0.00,,,0.00,,2013-02-17 11:52:00,
2013-02-17 02:02:00,61.0,52.0,-100.00,WNW,297,3.0,9.0,72,0.00,,,0.00,,2013-02-17 12:02:00,
2013-02-17 02:11:00,61.0,51.0,-100.00,South,182,3.0,15.0,69,0.00,,,0.00,,2013-02-17 12:11:00,
2013-02-17 02:32:00,61.0,51.0,-100.00,South,182,3.0,15.0,69,0.00,,,0.00,,2013-02-17 12:32:00,
2013-02-17 02:42:00,61.0,51.0,-100.00,South,182,3.0,15.0,69,0.00,,,0.00,,2013-02-17 12:42:00,
2013-02-17 02:52:00,61.0,51.0,-100.00,South,182,3.0,15.0,69,0.00,,,0.00,,2013-02-17 12:52:00,
2013-02-17 03:02:00,61.0,51.0,-100.00,South,182,3.0,15.0,69,0.00,,,0.00,,2013-02-17 13:02:00,
2013-02-17 04:11:00,63.0,51.0,-100.00,ENE,74,4.0,17.0,66,-99.99,,,0.00,,2013-02-17 14:11:00,
2013-02-17 04:42:00,63.0,51.0,-100.00,ENE,74,4.0,17.0,66,-99.99,,,0.00,,2013-02-17 14:42:00,
2013-02-17 04:53:00,63.0,51.0,-100.00,ENE,74,4.0,17.0,66,-99.99,,,0.00,,2013-02-17 14:53:00,
2013-02-17 05:01:00,63.0,51.0,-100.00,ENE,74,4.0,17.0,66,-99.99,,,0.00,,2013-02-17 15:01:00,
2013-02-17 05:11:00,61.0,50.0,-100.00,ESE,111,0.0,12.0,68,0.00,,,0.00,,2013-02-17 15:11:00,
2013-02-17 05:42:00,61.0,50.0,-100.00,ESE,111,0.0,12.0,68,0.00,,,0.00,,2013-02-17 15:42:00,
2013-02-17 05:52:00,61.0,50.0,-100.00,ESE,111,0.0,12.0,68,0.00,,,0.00,,2013-02-17 15:52:00,
2013-02-17 06:01:00,61.0,50.0,-100.00,ESE,111,0.0,12.0,68,0.00,,,0.00,,2013-02-17 16:01:00,
2013-02-17 06:11:00,63.0,54.0,-100.00,NW,309,0.0,7.0,73,0.00,,,0.00,,2013-02-17 16:11:00,
2013-02-17 06:32:00,63.0,54.0,-100.00,NW,309,0.0,7.0,73,0.00,,,0.00,,2013-02-17 16:32:00,
2013-02-17 06:42:00,63.0,54.0,-100.00,NW,309,0.0,7.0,73,0.00,,,0.00,,2013-02-17 16:42:00,
2013-02-17 06:52:00,63.0,54.0,-100.00,NW,309,0.0,7.0,73,0.00,,,0.00,,2013-02-17 16:52:00,
2013-02-17 07:02:00,63.0,54.0,-100.00,NW,309,0.0,7.0,73,0.00,,,0.00,,2013-02-17 17:02:00,
2013-02-17 07:11:00,63.0,54.0,-100.00,North,1,0.0,7.0,72,0.00,,,0.00,,2013-02-17 17:11:00,
2013-02-17 07:32:00,63.0,54.0,-100.00,North,1,0.0,7.0,72,0.00,,,0.00,,2013-02-17 17:32:00,
2013-02-17 07:42:00,63.0,54.0,-100.00,North,1,0.0,7.0,72,0.00,,,0.00,,2013-02-17 17:42:00,
2013-02-17 07:52:00,63.0,54.0,-100.00,North,1,0.0,7.0,72,0.00,,,0.00,,2013-02-17 17:52:00,
2013-02-17 08:01:00,63.0,54.0,-100.00,North,1,0.0,7.0,72,0.00,,,0.00,,2013-02-17 18:01:00,
2013-02-17 08:11:00,63.0,53.0,-100.00,East,98,1.0,7.0,71,0.00,,,0.00,,2013-02-17 18:11:00,
2013-02-17 08:42:00,63.0,53.0,-100.00,East,98,1.0,7.0,71,0.00,,,0.00,,2013-02-17 18:42:00,
2013-02-17 08:52:00,63.0,53.0,-100.00,East,98,1.0,7.0,71,0.00,,,0.00,,2013-02-17 18:52:00,
2013-02-17 09:01:00,63.0,53.0,-100.00,East,98,1.0,7.0,71,0.00,,,0.00,,2013-02-17 19:01:00,
2013-02-17 09:11:00,68.0,56.0,-100.00,SW,225,4.0,15.0,65,0.00,,,0.00,,2013-02-17 19:11:00,
2013-02-17 09:42:00,68.0,56.0,-100.00,SW,225,4.0,15.0,65,0.00,,,0.00,,2013-02-17 19:42:00,
2013-02-17 09:52:00,68.0,56.0,-100.00,SW,225,4.0,15.0,65,0.00,,,0.00,,2013-02-17 19:52:00,
2013-02-17 10:01:00,68.0,56.0,-100.00,SW,225,4.0,15.0,65,0.00,,,0.00,,2013-02-17 20:01:00,
2013-02-17 10:11:00,71.0,58.0,-100.00,ENE,63,2.0,11.0,63,0.00,,,0.00,,2013-02-17 20:11:00,
2013-02-17 10:42:00,71.0,58.0,-100.00,ENE,63,2.0,11.0,63,0.00,,,0.00,,2013-02-17 20:42:00,
2013-02-17 10:52:00,71.0,58.0,-100.00,ENE,63,2.0,11.0,63,0.00,,,0.00,,2013-02-17 20:52:00,
2013-02-17 11:01:00,71.0,58.0,-100.00,ENE,63,2.0,11.0,63,0.00,,,0.00,,2013-02-17 21:01:00,
2013-02-17 11:11:00,78.0,60.0,-100.00,NE,36,2.0,16.0,54,0.00,,,0.00,,2013-02-17 21:11:00,
2013-02-17 11:42:00,78.0,60.0,-100.00,NE,36,2.0,16.0,54,0.00,,,0.00,,2013-02-17 21:42:00,
2013-02-17 11:53:00,78.0,60.0,-100.00,NE,36,2.0,16.0,54,0.00,,,0.00,,2013-02-17 21:53:00,
2013-02-17 12:01:00,78.0,60.0,-100.00,NE,36,2.0,16.0,54,0.00,,,0.00,,2013-02-17 22:01:00,
2013-02-17 12:11:00,76.0,55.0,-100.00,ENE,78,5.0,15.0,49,0.00,,,0.00,,2013-02-17 22:11:00,
2013-02-17 12:32:00,76.0,55.0,-100.00,ENE,78,5.0,15.0,49,0.00,,,0.00,,2013-02-17 22:32:00,
2013-02-17 12:42:00,76.0,55.0,-100.00,ENE,78,5.0,15.0,49,0.00,,,0.00,,2013-02-17 22:42:00,
2013-02-17 12:52:00,76.0,55.0,-100.00,ENE,78,5.0,15.0,49,0.00,,,0.00,,2013-02-17 22:52:00,
2013-02-17 13:01:00,76.0,55.0,-100.00,ENE,78,5.0,15.0,49,0.00,,,0.00,,2013-02-17 23:01:00,
2013-02-17 13:11:00,76.0,52.0,-100.00,East,82,8.0,19.0,43,0.00,,,0.00,,2013-02-17 23:11:00,
2013-02-17 13:42:00,76.0,52.0,-100.00,East,82,8.0,19.0,43,0.00,,,0.00,,2013-02-17 23:42:00,
2013-02-17 13:52:00,76.0,52.0,-100.00,East,82,8.0,19.0,43,0.00,,,0.00,,2013-02-17 23:52:00,
2013-02-17 14:01:00,76.0,52.0,-100.00,East,82,8.0,19.0,43,0.00,,,0.00,,2013-02-18 00:01:00,
2013-02-17 14:11:00,76.0,57.0,-100.00,NNE,16,3.0,12.0,52,0.00,,,0.00,,2013-02-18 00:11:00,
2013-02-17 14:42:00,76.0,57.0,-100.00,NNE,16,3.0,12.0,52,0.00,,,0.00,,2013-02-18 00:42:00,
2013-02-17 14:52:00,76.0,57.0,-100.00,NNE,16,3.0,12.0,52,0.00,,,0.00,,2013-02-18 00:52:00,
2013-02-17 15:01:00,76.0,57.0,-100.00,NNE,16,3.0,12.0,52,0.00,,,0.00,,2013-02-18 01:01:00,
2013-02-17 16:11:00,75.0,56.0,-100.00,West,265,1.0,11.0,52,-99.99,,,0.00,,2013-02-18 02:11:00,
2013-02-17 16:42:00,75.0,56.0,-100.00,West,265,1.0,11.0,52,-99.99,,,0.00,,2013-02-18 02:42:00,
2013-02-17 16:52:00,75.0,56.0,-100.00,West,265,1.0,11.0,52,-99.99,,,0.00,,2013-02-18 02:52:00,
2013-02-17 17:01:00,75.0,56.0,-100.00,West,265,1.0,11.0,52,-99.99,,,0.00,,2013-02-18 03:01:00,
2013-02-17 17:11:00,73.0,55.0,-100.00,NNE,28,1.0,14.0,53,0.00,,,0.00,,2013-02-18 03:11:00,
2013-02-17 17:32:00,73.0,55.0,-100.00,NNE,28,1.0,14.0,53,0.00,,,0.00,,2013-02-18 03:32:00,
2013-02-17 17:42:00,73.0,55.0,-100.00,NNE,28,1.0,14.0,53,0.00,,,0.00,,2013-02-18 03:42:00,
2013-02-17 17:52:00,73.0,55.0,-100.00,NNE,28,1.0,14.0,53,0.00,,,0.00,,2013-02-18 03:52:00,
2013-02-17 18:01:00,73.0,55.0,-100.00,NNE,28,1.0,14.0,53,0.00,,,0.00,,2013-02-18 04:01:00,
2013-02-17 18:11:00,70.0,59.0,-100.00,NNW,338,2.0,12.0,67,0.00,,,0.00,,2013-02-18 04:11:00,
2013-02-17 18:42:00,70.0,59.0,-100.00,NNW,338,2.0,12.0,67,0.00,,,0.00,,2013-02-18 04:42:00,
2013-02-17 18:52:00,70.0,59.0,-100.00,NNW,338,2.0,12.0,67,0.00,,,0.00,,2013-02-18 04:52:00,
2013-02-17 19:01:00,70.0,59.0,-100.00,NNW,338,2.0,12.0,67,0.00,,,0.00,,2013-02-18 05:01:00,
2013-02-17 19:11:00,64.0,51.0,-100.00,NE,53,8.0,14.0,63,0.00,,,0.00,,2013-02-18 05:11:00,
2013-02-17 19:32:00,64.0,51.0,-100.00,NE,53,8.0,14.0,63,0.00,,,0.00,,2013-02-18 05:32:00,
2013-02-17 19:42:00,64.0,51.0,-100.00,NE,53,8.0,14.0,63,0.00,,,0.00,,2013-02-18 05:42:00,
2013-02-17 19:52:00,64.0,51.0,-100.00,NE,53,8.0,14.0,63,0.00,,,0.00,,2013-02-18 05:52:00,
2013-02-17 20:02:00,64.0,51.0,-100.00,NE,53,8.0,14.0,63,0.00,,,0.00,,2013-02-18 06:02:00,
2013-02-17 20:11:00,65.0,52.0,-100.00,NW,325,6.0,18.0,63,0.00,,,0.00,,2013-02-18 06:11:00,
2013-02-17 20:42:00,65.0,52.0,-100.00,NW,325,6.0,18.0,63,0.00,,,0.00,,2013-02-18 06:42:00,
2013-02-17 20:52:00,65.0,52.0,-100.00,NW,325,6.0,18.0,63,0.00,,,0.00,,2013-02-18 06:52:00,
2013-02-17 21:01:00,65.0,52.0,-100.00,NW,325,6.0,18.0,63,0.00,,,0.00,,2013-02-18 07:01:00,
2013-02-17 21:11:00,64.0,51.0,-100.00,SE,134,4.0,18.0,62,0.00,,,0.00,,2013-02-18 07:11:00,
2013-02-17 21:42:00,64.0,51.0,-100.00,SE,134,4.0,18.0,62,0.00,,,0.00,,2013-02-18 07:42:00,
2013-02-17 21:52:00,64.0,51.0,-100.00,SE,134,4.0,18.0,62,0.00,,,0.00,,2013-02-18 07:52:00,
2013-02-17 22:01:00,64.0,51.0,-100.00,SE,134,4.0,18.0,62,0.00,,,0.00,,2013-02-18 08:01:00,
2013-02-17 22:11:00,64.0,52.0,-100.00,ENE,57,3.0,13.0,64,0.00,,,0.00,,2013-02-18 08:11:00,
2013-02-17 22:33:00,64.0,52.0,-100.00,ENE,57,3.0,13.0,64,0.00,,,0.00,,2013-02-18 08:33:00,
2013-02-17 22:42:00,64.0,52.0,-100.00,ENE,57,3.0,13.0,64,0.00,,,0.00,,2013-02-18 08:42:00,
2013-02-17 22:52:00,64.0,52.0,-100.00,ENE,57,3.0,13.0,64,0.00,,,0.00,,2013-02-18 08:52:00,
2013-02-17 23:02:00,64.0,52.0,-100.00,ENE,57,3.0,13.0,64,0.00,,,0.00,,2013-02-18 09:02:00,
2013-02-17 23:11:00,62.0,52.0,-100.00,East,96,2.0,12.0,70,0.00,,,0.00,,2013-02-18 09:11:00,
2013-02-17 23:32:00,62.0,52.0,-100.00,East,96,2.0,12.0,70,0.00,,,0.00,,2013-02-18 09:32:00,
2013-02-17 23:42:00,62.0,52.0,-100.00,East,96,2.0,12.0,70,0.00,,,0.00,,2013-02-18 09:42:00,
2013-02-17 23:52:00,62.0,52.0,-100.00,East,96,2.0,12.0,70,0.00,,,0.00,,2013-02-18 09:52:00,